Time;durP1;ratioP1;P1;durP2;ratioP2;P2;SDS_P1;SDS_P2;PMS_P1;PMS_P2;Temp;Humidity;BMP_temperature;BMP_pressure;BME280_temperature;BME280_humidity;BME280_pressure;Samples;Min_cycle;Max_cycle;Signal;HPM_P1;HPM_P2
2022/05/06 00:00:19;;;;;;;11.23;10.83;;;13.30;99.90;;;;;;5124307;28;20217;-83
2022/05/06 00:02:48;;;;;;;11.20;10.80;;;13.30;99.90;;;;;;5124141;28;20271;-83
2022/05/06 00:05:26;;;;;;;11.40;11.00;;;13.30;99.90;;;;;;5123965;28;20243;-83
2022/05/06 00:07:55;;;;;;;11.40;11.00;;;13.30;99.90;;;;;;5135067;28;20220;-83
2022/05/06 00:10:25;;;;;;;11.27;10.87;;;13.30;99.90;;;;;;5140281;28;20224;-83
2022/05/06 00:12:55;;;;;;;11.37;10.97;;;13.30;99.90;;;;;;5137104;27;20224;-83
2022/05/06 00:15:25;;;;;;;10.90;10.60;;;13.30;99.90;;;;;;5124980;28;20228;-83
2022/05/06 00:17:53;;;;;;;10.90;10.60;;;13.20;99.90;;;;;;5124491;28;20231;-83
2022/05/06 00:20:31;;;;;;;11.00;10.70;;;13.20;99.90;;;;;;5123507;28;20288;-83
2022/05/06 00:23:01;;;;;;;11.17;10.87;;;13.10;99.90;;;;;;5123026;28;20235;-83
2022/05/06 00:25:30;;;;;;;10.67;10.37;;;13.10;99.90;;;;;;5122666;27;20233;-83
2022/05/06 00:28:00;;;;;;;11.00;10.70;;;13.10;99.90;;;;;;5122265;28;20259;-83
2022/05/06 00:30:29;;;;;;;10.87;10.57;;;13.10;99.90;;;;;;5122335;28;20474;-83
2022/05/06 00:33:00;;;;;;;10.47;10.17;;;13.00;99.90;;;;;;5122536;28;20286;-83
2022/05/06 00:35:31;;;;;;;11.10;10.80;;;12.90;99.90;;;;;;5122196;28;20233;-83
2022/05/06 00:37:59;;;;;;;10.97;10.67;;;12.80;99.90;;;;;;5122537;28;20334;-83
2022/05/06 00:40:27;;;;;;;11.00;10.70;;;12.80;99.90;;;;;;5121886;28;20240;-83
2022/05/06 00:42:56;;;;;;;10.63;10.33;;;12.80;99.90;;;;;;5122463;28;20232;-83
2022/05/06 00:45:26;;;;;;;10.40;10.10;;;12.80;99.90;;;;;;5121684;28;20243;-83
2022/05/06 00:47:55;;;;;;;10.60;10.30;;;12.80;99.90;;;;;;5122956;27;20225;-83
2022/05/06 00:50:24;;;;;;;10.37;10.07;;;12.80;99.90;;;;;;5122652;28;20224;-82
2022/05/06 00:53:06;;;;;;;10.80;10.50;;;12.70;99.90;;;;;;5121811;27;20323;-83
2022/05/06 00:55:34;;;;;;;10.70;10.40;;;12.80;99.90;;;;;;5122369;28;20237;-83
2022/05/06 00:58:04;;;;;;;10.90;10.60;;;12.80;99.90;;;;;;5133586;28;20225;-82
2022/05/06 01:00:32;;;;;;;10.63;10.33;;;12.80;99.90;;;;;;5128106;28;20221;-83
2022/05/06 01:03:01;;;;;;;10.60;10.30;;;12.80;99.90;;;;;;5123390;28;20232;-83
2022/05/06 01:05:30;;;;;;;10.97;10.67;;;12.90;99.90;;;;;;5141292;22;20271;-84
2022/05/06 01:08:10;;;;;;;10.90;10.60;;;12.90;99.90;;;;;;5117782;28;20239;-83
2022/05/06 01:10:38;;;;;;;11.70;11.30;;;12.90;99.90;;;;;;5118047;28;20205;-85
2022/05/06 01:13:08;;;;;;;10.90;10.60;;;12.90;99.90;;;;;;5117731;28;20260;-85
2022/05/06 01:15:38;;;;;;;10.90;10.60;;;13.00;99.90;;;;;;5117517;28;20282;-85
2022/05/06 01:18:08;;;;;;;10.90;10.60;;;13.00;99.90;;;;;;5117813;28;20241;-85
2022/05/06 01:20:44;;;;;;;11.00;10.70;;;12.90;99.90;;;;;;5134144;27;20197;-83
2022/05/06 01:23:25;;;;;;;11.33;11.03;;;12.90;99.90;;;;;;5139352;27;20220;-83
2022/05/06 01:25:53;;;;;;;11.30;11.00;;;13.00;99.90;;;;;;5140158;27;20228;-83
2022/05/06 01:28:23;;;;;;;11.20;10.90;;;12.90;99.90;;;;;;5142878;27;20212;-83
2022/05/06 01:30:59;;;;;;;11.03;10.73;;;12.80;99.90;;;;;;5142449;27;20220;-83
2022/05/06 01:33:29;;;;;;;11.27;10.97;;;12.80;99.90;;;;;;5134452;28;20234;-82
2022/05/06 01:36:01;;;;;;;11.20;10.90;;;12.60;99.90;;;;;;5125847;28;20291;-84
2022/05/06 01:38:39;;;;;;;11.47;11.07;;;12.40;99.90;;;;;;5121722;28;20225;-84
2022/05/06 01:41:11;;;;;;;11.50;11.10;;;12.20;99.90;;;;;;5121454;28;20229;-83
2022/05/06 01:43:48;;;;;;;11.33;11.03;;;12.10;99.90;;;;;;5120974;28;20247;-84
2022/05/06 01:46:17;;;;;;;11.93;11.53;;;12.00;99.90;;;;;;5121309;28;20225;-85
2022/05/06 01:48:46;;;;;;;11.57;11.17;;;11.90;99.90;;;;;;5121002;28;20216;-84
2022/05/06 01:51:17;;;;;;;11.53;11.13;;;11.90;99.90;;;;;;5121001;28;20229;-84
2022/05/06 01:53:47;;;;;;;11.83;11.43;;;11.80;99.90;;;;;;5120370;28;20233;-84
2022/05/06 01:56:23;;;;;;;11.93;11.53;;;11.70;99.90;;;;;;5120878;28;20236;-83
2022/05/06 01:58:52;;;;;;;11.57;11.17;;;11.70;99.90;;;;;;5120576;28;20715;-84
2022/05/06 02:01:22;;;;;;;11.80;11.40;;;11.70;99.90;;;;;;5121144;28;20224;-84
2022/05/06 02:06:36;;;;;;;11.53;11.13;;;11.80;99.90;;;;;;5120467;28;20221;-84
2022/05/06 02:09:10;;;;;;;11.80;11.40;;;11.70;99.90;;;;;;5120925;28;20230;-84
2022/05/06 02:11:38;;;;;;;11.30;11.00;;;11.80;99.90;;;;;;5120140;28;20233;-84
2022/05/06 02:14:08;;;;;;;11.23;10.93;;;11.80;99.90;;;;;;5120897;28;20253;-84
2022/05/06 02:16:36;;;;;;;11.00;10.70;;;11.80;99.90;;;;;;5120224;28;20235;-84
2022/05/06 02:19:06;;;;;;;11.20;10.90;;;11.70;99.90;;;;;;5120607;28;20233;-84
2022/05/06 02:21:34;;;;;;;11.07;10.77;;;11.80;99.90;;;;;;5120837;28;20229;-84
2022/05/06 02:24:03;;;;;;;10.80;10.50;;;11.80;99.90;;;;;;5120792;28;20260;-84
2022/05/06 02:29:20;;;;;;;10.57;10.27;;;11.80;99.90;;;;;;5119042;28;20221;-85
2022/05/06 02:34:37;;;;;;;10.90;10.60;;;11.70;99.90;;;;;;5120343;28;20231;-84
2022/05/06 02:37:06;;;;;;;10.47;10.17;;;11.80;99.90;;;;;;5120360;27;20242;-84
2022/05/06 02:39:36;;;;;;;10.50;10.20;;;11.80;99.90;;;;;;5121179;28;20294;-83
2022/05/06 02:42:15;;;;;;;10.47;10.17;;;11.80;99.90;;;;;;5120268;28;20240;-84
2022/05/06 02:44:43;;;;;;;10.40;10.10;;;11.90;99.90;;;;;;5120968;28;20290;-84
2022/05/06 02:47:12;;;;;;;10.40;10.10;;;11.90;99.90;;;;;;5122270;28;20270;-84
2022/05/06 02:49:42;;;;;;;10.30;10.00;;;12.00;99.90;;;;;;5121309;28;20265;-84
2022/05/06 02:52:11;;;;;;;10.00;9.70;;;12.00;99.90;;;;;;5120859;28;20286;-84
2022/05/06 02:54:41;;;;;;;10.27;9.97;;;12.10;99.90;;;;;;5120647;28;20244;-83
2022/05/06 02:57:21;;;;;;;9.87;9.57;;;12.10;99.90;;;;;;5120627;28;20236;-84
2022/05/06 02:59:49;;;;;;;9.53;9.23;;;12.10;99.90;;;;;;5120310;28;20236;-84
2022/05/06 03:02:19;;;;;;;10.30;10.00;;;12.10;99.90;;;;;;5128728;28;20235;-84
2022/05/06 03:04:48;;;;;;;9.70;9.40;;;12.10;99.90;;;;;;5129745;28;20244;-83
2022/05/06 03:07:17;;;;;;;9.70;9.40;;;12.10;99.90;;;;;;5124431;28;20239;-84
2022/05/06 03:09:46;;;;;;;10.10;9.80;;;12.10;99.90;;;;;;5120935;28;20245;-83
2022/05/06 03:12:29;;;;;;;9.93;9.63;;;12.10;99.90;;;;;;5120424;28;20374;-85
2022/05/06 03:14:57;;;;;;;10.00;9.70;;;12.10;99.90;;;;;;5127451;27;20243;-82
2022/05/06 03:17:25;;;;;;;10.20;9.90;;;12.10;99.90;;;;;;5140393;27;20216;-82
2022/05/06 03:19:53;;;;;;;10.30;10.00;;;12.10;99.90;;;;;;5137767;27;20221;-84
2022/05/06 03:22:22;;;;;;;10.20;9.90;;;12.10;99.90;;;;;;5122125;28;20243;-83
2022/05/06 03:24:52;;;;;;;10.30;10.00;;;12.10;99.90;;;;;;5122376;28;20246;-84
2022/05/06 03:30:19;;;;;;;10.20;9.90;;;12.00;99.90;;;;;;5121192;28;20240;-83
2022/05/06 03:32:47;;;;;;;10.10;9.80;;;12.00;99.90;;;;;;5120208;28;20224;-84
2022/05/06 03:35:16;;;;;;;10.30;10.00;;;12.10;99.90;;;;;;5131425;27;20283;-83
2022/05/06 03:37:47;;;;;;;10.53;10.23;;;12.00;99.90;;;;;;5137736;27;20224;-83
2022/05/06 03:40:17;;;;;;;10.73;10.43;;;11.90;99.90;;;;;;5125634;28;20236;-84
2022/05/06 03:42:49;;;;;;;10.60;10.30;;;11.80;99.90;;;;;;5125061;28;20241;-83
2022/05/06 03:45:17;;;;;;;11.00;10.70;;;11.90;99.90;;;;;;5120629;28;20236;-84
2022/05/06 03:47:45;;;;;;;10.60;10.30;;;11.90;99.90;;;;;;5119500;27;20224;-84
2022/05/06 03:53:02;;;;;;;10.23;9.93;;;11.80;99.90;;;;;;5139957;27;20219;-83
2022/05/06 03:55:32;;;;;;;10.30;10.00;;;11.90;99.90;;;;;;5138968;28;20240;-82
2022/05/06 03:58:03;;;;;;;10.27;9.97;;;11.90;99.90;;;;;;5138923;28;20262;-82
2022/05/06 04:00:31;;;;;;;10.27;9.97;;;11.90;99.90;;;;;;5129637;28;20224;-81
2022/05/06 04:03:02;;;;;;;10.60;10.30;;;11.80;99.90;;;;;;5127559;28;20224;-84
2022/05/06 04:05:30;;;;;;;10.53;10.23;;;11.80;99.90;;;;;;5122597;28;20327;-84
2022/05/06 04:07:59;;;;;;;10.27;9.97;;;11.80;99.90;;;;;;5122425;28;20237;-84
2022/05/06 04:10:27;;;;;;;10.30;10.00;;;11.80;99.90;;;;;;5121774;28;21111;-84
2022/05/06 04:12:57;;;;;;;9.90;9.60;;;11.80;99.90;;;;;;5121357;28;20224;-84
2022/05/06 04:15:29;;;;;;;10.00;9.70;;;11.70;99.90;;;;;;5121368;28;20239;-83
2022/05/06 04:17:57;;;;;;;10.00;9.70;;;11.70;99.90;;;;;;5121264;28;20243;-84
2022/05/06 04:26:00;;;;;;;10.27;9.97;;;11.60;99.90;;;;;;5119840;28;20221;-83
2022/05/06 04:28:29;;;;;;;10.20;9.90;;;11.60;99.90;;;;;;5120494;28;20304;-83
2022/05/06 04:31:01;;;;;;;10.20;9.90;;;11.60;99.90;;;;;;5120662;28;20229;-84
2022/05/06 04:33:29;;;;;;;10.20;9.90;;;11.60;99.90;;;;;;5120100;28;20221;-84
2022/05/06 04:35:59;;;;;;;9.80;9.50;;;11.60;99.90;;;;;;5119557;28;20233;-84
2022/05/06 04:38:28;;;;;;;9.80;9.50;;;11.60;99.90;;;;;;5119260;28;20262;-84
2022/05/06 04:40:56;;;;;;;10.07;9.77;;;11.60;99.90;;;;;;5119015;28;20259;-84
2022/05/06 04:43:26;;;;;;;10.20;9.90;;;11.60;99.90;;;;;;5118832;28;20311;-84
2022/05/06 04:45:54;;;;;;;9.97;9.67;;;11.70;99.90;;;;;;5118985;28;20240;-84
2022/05/06 04:48:33;;;;;;;10.03;9.73;;;11.70;99.90;;;;;;5118981;28;20236;-84
2022/05/06 04:51:02;;;;;;;10.07;9.77;;;11.70;99.90;;;;;;5119006;28;20233;-84
2022/05/06 04:53:33;;;;;;;10.00;9.70;;;11.70;99.90;;;;;;5131252;28;20229;-84
2022/05/06 04:58:48;;;;;;;10.10;9.80;;;11.70;99.90;;;;;;5118527;28;20240;-83
2022/05/06 05:01:17;;;;;;;9.60;9.30;;;11.70;99.90;;;;;;5128548;27;20284;-83
2022/05/06 05:03:47;;;;;;;9.90;9.60;;;11.70;99.90;;;;;;5142220;27;20286;-82
2022/05/06 05:06:18;;;;;;;10.13;9.83;;;11.70;99.90;;;;;;5143124;27;20291;-83
2022/05/06 05:08:46;;;;;;;9.73;9.43;;;11.70;99.90;;;;;;5143115;27;20246;-83
2022/05/06 05:11:15;;;;;;;9.97;9.67;;;11.80;99.90;;;;;;5143316;27;20225;-83
2022/05/06 05:13:48;;;;;;;10.20;9.90;;;11.80;99.90;;;;;;5143122;27;20235;-83
2022/05/06 05:16:15;;;;;;;9.73;9.43;;;11.90;99.90;;;;;;5142784;27;20250;-84
2022/05/06 05:18:44;;;;;;;10.77;10.47;;;11.80;99.90;;;;;;5143110;27;20232;-83
2022/05/06 05:21:22;;;;;;;10.30;10.00;;;11.90;99.90;;;;;;5142219;28;20228;-83
2022/05/06 05:23:52;;;;;;;10.50;10.20;;;12.00;99.90;;;;;;5142694;28;20219;-83
2022/05/06 05:26:21;;;;;;;10.40;10.10;;;12.00;99.90;;;;;;5142019;27;20232;-83
2022/05/06 05:28:50;;;;;;;10.43;10.13;;;12.00;99.90;;;;;;5134723;28;20229;-84
2022/05/06 05:31:20;;;;;;;10.30;10.00;;;12.10;99.90;;;;;;5124465;28;20213;-84
2022/05/06 05:33:52;;;;;;;10.67;10.37;;;12.10;99.90;;;;;;5124918;28;20229;-83
2022/05/06 05:36:23;;;;;;;10.50;10.20;;;12.10;99.90;;;;;;5134141;28;20282;-84
2022/05/06 05:38:51;;;;;;;10.30;10.00;;;12.00;99.90;;;;;;5123347;28;20236;-84
2022/05/06 05:41:23;;;;;;;10.20;9.90;;;12.10;99.90;;;;;;5123580;28;20240;-83
2022/05/06 05:49:23;;;;;;;10.10;9.80;;;12.10;99.90;;;;;;5124419;28;20205;-84
2022/05/06 05:51:54;;;;;;;10.10;9.80;;;12.20;99.90;;;;;;5122934;28;20233;-84
2022/05/06 05:54:22;;;;;;;10.40;10.10;;;12.20;99.90;;;;;;5121914;28;20275;-82
2022/05/06 05:56:51;;;;;;;10.67;10.37;;;12.20;99.90;;;;;;5122761;28;20224;-84
2022/05/06 05:59:20;;;;;;;10.30;10.00;;;12.20;99.90;;;;;;5122170;28;20236;-84
2022/05/06 06:01:50;;;;;;;10.60;10.30;;;12.20;99.90;;;;;;5123506;28;20232;-84
2022/05/06 06:04:19;;;;;;;10.73;10.43;;;12.30;99.90;;;;;;5123527;28;20987;-82
2022/05/06 06:06:49;;;;;;;10.50;10.20;;;12.40;99.90;;;;;;5122451;28;20225;-83
2022/05/06 06:09:22;;;;;;;10.23;9.93;;;12.50;99.90;;;;;;5121811;28;20217;-84
2022/05/06 06:11:50;;;;;;;10.67;10.37;;;12.60;99.90;;;;;;5121265;28;20263;-84
2022/05/06 06:14:18;;;;;;;10.60;10.30;;;12.60;99.90;;;;;;5121711;28;20236;-83
2022/05/06 06:16:47;;;;;;;10.90;10.60;;;12.60;99.90;;;;;;5121524;28;20240;-85
2022/05/06 06:19:17;;;;;;;10.70;10.40;;;12.70;99.90;;;;;;5130945;27;20245;-85
2022/05/06 06:21:46;;;;;;;10.43;10.13;;;12.80;99.90;;;;;;5123665;28;20237;-83
2022/05/06 06:24:15;;;;;;;10.37;10.07;;;13.00;99.90;;;;;;5122412;28;20267;-83
2022/05/06 06:26:53;;;;;;;10.60;10.30;;;13.10;99.90;;;;;;5121359;28;20225;-82
2022/05/06 06:29:22;;;;;;;10.57;10.27;;;13.20;99.90;;;;;;5121862;28;20237;-84
2022/05/06 06:31:52;;;;;;;10.63;10.33;;;13.40;99.90;;;;;;5121126;28;20240;-84
2022/05/06 06:34:21;;;;;;;10.40;10.10;;;13.50;99.90;;;;;;5121229;28;20240;-84
2022/05/06 06:36:51;;;;;;;10.50;10.20;;;13.60;99.90;;;;;;5121578;28;20232;-83
2022/05/06 06:39:20;;;;;;;10.50;10.20;;;13.60;99.90;;;;;;5120768;28;20236;-84
2022/05/06 06:41:58;;;;;;;10.40;10.10;;;13.60;99.90;;;;;;5120073;28;20233;-84
2022/05/06 06:44:28;;;;;;;10.70;10.40;;;13.60;99.90;;;;;;5119620;28;20286;-84
2022/05/06 06:46:57;;;;;;;10.10;9.80;;;13.70;99.90;;;;;;5120404;28;20263;-84
2022/05/06 06:49:27;;;;;;;9.73;9.43;;;13.80;99.90;;;;;;5120779;28;20236;-84
2022/05/06 06:51:56;;;;;;;9.93;9.63;;;13.90;99.90;;;;;;5122179;28;20278;-84
2022/05/06 06:54:25;;;;;;;9.97;9.67;;;13.90;99.90;;;;;;5121364;28;20229;-84
2022/05/06 06:57:04;;;;;;;10.10;9.80;;;14.00;99.90;;;;;;5121376;28;20229;-84
2022/05/06 06:59:33;;;;;;;10.20;9.90;;;14.10;99.90;;;;;;5121448;28;20232;-84
2022/05/06 07:02:03;;;;;;;9.97;9.67;;;14.10;99.90;;;;;;5121094;28;20233;-84
2022/05/06 07:04:32;;;;;;;10.20;9.90;;;14.20;99.90;;;;;;5195326;22;20264;-81
2022/05/06 07:15:32;;;;;;;10.15;9.85;;;14.40;99.90;;;;;;5122607;28;20316;-82
2022/05/06 07:18:02;;;;;;;10.18;9.88;;;14.60;99.90;;;;;;5122960;27;20276;-82
2022/05/06 07:20:31;;;;;;;10.27;9.97;;;14.50;99.90;;;;;;5122881;28;20263;-82
2022/05/06 07:23:03;;;;;;;10.07;9.77;;;14.40;99.90;;;;;;5122530;27;20224;-82
2022/05/06 07:25:32;;;;;;;10.10;9.80;;;14.50;99.90;;;;;;5123230;27;20221;-82
2022/05/06 07:28:08;;;;;;;10.20;9.90;;;14.60;99.90;;;;;;5124274;27;20294;-82
2022/05/06 07:30:49;;;;;;;9.77;9.48;;;14.80;99.90;;;;;;5123931;27;20285;-83
2022/05/06 07:33:27;;;;;;;9.63;9.32;;;14.80;99.90;;;;;;5123767;28;20213;-83
2022/05/06 07:36:05;;;;;;;9.68;9.38;;;14.90;99.90;;;;;;5123723;27;20228;-82
2022/05/06 07:38:44;;;;;;;9.80;9.50;;;14.80;99.90;;;;;;5124541;28;20234;-82
2022/05/06 07:41:13;;;;;;;9.90;9.60;;;14.90;99.90;;;;;;5124660;27;20260;-82
2022/05/06 07:46:30;;;;;;;10.10;9.80;;;15.10;99.90;;;;;;5123504;27;20282;-83
2022/05/06 07:49:09;;;;;;;10.25;9.95;;;15.20;99.90;;;;;;5124011;28;20239;-83
2022/05/06 07:51:50;;;;;;;10.20;9.90;;;15.30;99.90;;;;;;5124075;27;20283;-82
2022/05/06 07:54:44;;;;;;;10.02;9.73;;;15.30;99.90;;;;;;5134918;27;20232;-83
2022/05/06 07:57:28;;;;;;;10.10;9.80;;;15.40;99.90;;;;;;5135462;28;20304;-83
2022/05/06 08:00:23;;;;;;;10.60;10.30;;;15.60;99.90;;;;;;5126320;28;20248;-83
2022/05/06 08:05:56;;;;;;;9.80;9.50;;;15.80;99.90;;;;;;5123461;27;20225;-83
2022/05/06 08:08:30;;;;;;;9.57;9.27;;;15.90;99.90;;;;;;5123383;28;20250;-83
2022/05/06 08:13:55;;;;;;;10.07;9.77;;;16.20;99.90;;;;;;5124987;28;20254;-83
2022/05/06 08:16:34;;;;;;;10.20;9.90;;;16.10;99.90;;;;;;5122461;27;20297;-83
2022/05/06 08:22:05;;;;;;;10.07;9.77;;;16.10;99.90;;;;;;5123179;28;20227;-83
2022/05/06 08:24:53;;;;;;;10.02;9.73;;;16.20;99.90;;;;;;5122938;27;20248;-83
2022/05/06 08:27:21;;;;;;;9.70;9.40;;;16.30;99.90;;;;;;5123243;27;20234;-82
2022/05/06 08:29:51;;;;;;;9.55;9.25;;;16.30;99.90;;;;;;5122485;28;20229;-83
2022/05/06 08:32:30;;;;;;;9.20;8.90;;;16.20;99.90;;;;;;5123899;28;20232;-83
2022/05/06 08:35:10;;;;;;;9.63;9.32;;;16.30;99.90;;;;;;5123434;27;20233;-82
2022/05/06 08:38:02;;;;;;;9.52;9.23;;;16.40;99.90;;;;;;5124978;28;20246;-83
2022/05/06 08:40:35;;;;;;;9.90;9.60;;;16.20;99.90;;;;;;5123928;27;20243;-83
2022/05/06 08:43:19;;;;;;;9.90;9.60;;;16.40;99.90;;;;;;5123457;27;20296;-82
2022/05/06 08:51:51;;;;;;;10.07;9.77;;;16.80;99.90;;;;;;5104354;28;20253;-82
2022/05/06 08:54:30;;;;;;;10.25;9.95;;;17.00;99.90;;;;;;5103661;28;20249;-83
2022/05/06 08:57:16;;;;;;;10.10;9.80;;;17.10;99.90;;;;;;5102817;28;20237;-83
2022/05/06 09:00:03;;;;;;;9.88;9.57;;;17.10;99.90;;;;;;5102891;28;20236;-83
2022/05/06 09:02:48;;;;;;;10.45;10.15;;;17.20;99.90;;;;;;5102884;28;20261;-83
2022/05/06 09:05:49;;;;;;;10.25;9.95;;;17.20;99.90;;;;;;5101881;28;20240;-83
2022/05/06 09:08:32;;;;;;;10.40;10.10;;;17.20;99.90;;;;;;5102177;28;20228;-83
2022/05/06 09:11:13;;;;;;;10.40;10.10;;;17.30;99.90;;;;;;5102326;28;20261;-83
2022/05/06 09:14:16;;;;;;;10.48;10.18;;;17.50;99.90;;;;;;5103221;28;20233;-84
2022/05/06 09:17:01;;;;;;;10.32;10.02;;;17.60;99.90;;;;;;5102074;28;21116;-83
2022/05/06 09:19:39;;;;;;;10.20;9.90;;;17.60;99.90;;;;;;5100890;28;20233;-83
2022/05/06 09:22:19;;;;;;;10.32;10.02;;;17.50;99.90;;;;;;5101485;28;20295;-83
2022/05/06 09:24:50;;;;;;;10.30;10.00;;;17.50;99.90;;;;;;5109317;28;20276;-83
2022/05/06 09:27:44;;;;;;;10.40;10.10;;;17.60;99.90;;;;;;5119155;27;20324;-83
2022/05/06 09:33:08;;;;;;;10.48;10.18;;;17.80;99.90;;;;;;5115974;28;20212;-83
2022/05/06 09:35:41;;;;;;;10.38;10.07;;;17.80;99.90;;;;;;5106733;28;20229;-83
2022/05/06 09:38:24;;;;;;;10.32;10.02;;;17.90;99.90;;;;;;5112234;27;20230;-83
2022/05/06 09:41:05;;;;;;;10.50;10.20;;;18.00;99.90;;;;;;5108046;28;20283;-83
2022/05/06 09:44:02;;;;;;;10.20;9.90;;;18.30;99.90;;;;;;5106346;28;20230;-84
2022/05/06 09:52:32;;;;;;;10.25;9.95;;;18.50;99.90;;;;;;5101180;28;20304;-83
2022/05/06 09:55:10;;;;;;;10.38;10.07;;;18.50;99.90;;;;;;5104976;28;20232;-83
2022/05/06 09:57:47;;;;;;;10.32;10.02;;;18.60;99.90;;;;;;5105042;28;20217;-83
2022/05/06 10:06:09;;;;;;;10.55;10.25;;;19.20;99.90;;;;;;5101252;28;20236;-83
2022/05/06 10:09:00;;;;;;;10.60;10.30;;;19.40;99.90;;;;;;5104575;28;20233;-83
2022/05/06 10:12:27;;;;;;;;;;;;;;;;;;;;;
2022/05/06 10:18:11;;;;;;;10.60;10.30;;;19.10;99.90;;;;;;5105756;28;20221;-82
2022/05/06 10:27:08;;;;;;;10.70;10.40;;;19.60;99.90;;;;;;5103149;28;20233;-83
2022/05/06 10:33:28;;;;;;;10.40;10.10;;;19.80;99.90;;;;;;5097230;28;20218;-83
2022/05/06 10:36:15;;;;;;;10.40;10.10;;;19.90;99.90;;;;;;5108844;28;20344;-83
2022/05/06 10:39:20;;;;;;;10.40;10.10;;;20.00;99.90;;;;;;5106758;28;20235;-83
2022/05/06 10:45:42;;;;;;;10.73;10.43;;;19.80;99.90;;;;;;5120802;27;20214;-82
2022/05/06 10:48:35;;;;;;;10.50;10.20;;;19.50;99.90;;;;;;5121883;27;20247;-82
2022/05/06 10:51:42;;;;;;;10.40;10.10;;;19.60;99.90;;;;;;5121623;27;20213;-82
2022/05/06 10:54:29;;;;;;;10.57;10.27;;;19.70;99.90;;;;;;5118073;27;20237;-82
2022/05/06 11:00:21;;;;;;;10.55;10.25;;;20.10;99.90;;;;;;5104126;28;20226;-83
2022/05/06 11:06:20;;;;;;;10.63;10.32;;;20.40;99.90;;;;;;5098337;28;20362;-83
2022/05/06 11:11:48;;;;;;;10.70;10.40;;;20.40;99.90;;;;;;5104179;28;20221;-83
2022/05/06 11:17:40;;;;;;;10.57;10.27;;;19.90;99.90;;;;;;5096763;28;20229;-83
2022/05/06 11:20:26;;;;;;;10.50;10.20;;;20.00;99.90;;;;;;5105737;28;20224;-83
2022/05/06 11:26:11;;;;;;;10.50;10.20;;;20.20;99.90;;;;;;5103407;28;20255;-83
2022/05/06 11:31:34;;;;;;;10.60;10.30;;;20.60;99.90;;;;;;5109172;28;20217;-82
2022/05/06 11:34:30;;;;;;;11.00;10.70;;;20.60;99.90;;;;;;5108342;28;20245;-82
2022/05/06 11:37:11;;;;;;;10.68;10.38;;;20.70;99.90;;;;;;5104701;28;20265;-82
2022/05/06 11:40:18;;;;;;;11.10;10.80;;;20.50;99.90;;;;;;5106664;28;20341;-82
2022/05/06 11:42:53;;;;;;;10.82;10.52;;;20.60;99.90;;;;;;5104327;28;20232;-82
2022/05/06 11:48:25;;;;;;;10.80;10.50;;;20.60;99.90;;;;;;5105089;28;20206;-83
2022/05/06 11:51:23;;;;;;;10.80;10.50;;;20.50;99.90;;;;;;5104337;28;20221;-81
2022/05/06 11:54:00;;;;;;;10.85;10.55;;;20.60;99.90;;;;;;5105689;28;20268;-82
2022/05/06 11:56:50;;;;;;;10.45;10.15;;;20.70;99.90;;;;;;5105241;28;20233;-83
2022/05/06 12:08:44;;;;;;;10.93;10.63;;;20.80;99.90;;;;;;5105381;28;20232;-83
2022/05/06 12:11:56;;;;;;;10.57;10.27;;;20.90;99.90;;;;;;5116252;28;20295;-83
2022/05/06 12:17:20;;;;;;;10.55;10.25;;;20.90;99.90;;;;;;5107654;27;20218;-83
2022/05/06 12:20:53;;;;;;;10.45;10.15;;;21.00;99.90;;;;;;5115049;27;20210;-83
2022/05/06 12:33:45;;;;;;;10.80;10.50;;;20.60;99.90;;;;;;5114383;28;20227;-80
2022/05/06 12:36:20;;;;;;;10.57;10.27;;;20.80;99.90;;;;;;5116170;28;20263;-81
2022/05/06 12:38:50;;;;;;;10.50;10.20;;;20.90;99.90;;;;;;5109130;28;20442;-80
2022/05/06 12:41:19;;;;;;;10.38;10.07;;;21.20;99.90;;;;;;5104205;28;20281;-81
2022/05/06 12:43:48;;;;;;;10.60;10.30;;;21.30;99.90;;;;;;5103158;28;20233;-82
2022/05/06 12:46:27;;;;;;;10.52;10.23;;;21.30;99.90;;;;;;5103275;28;20470;-81
2022/05/06 12:51:52;;;;;;;10.60;10.30;;;21.30;99.90;;;;;;5102521;28;20205;-82
2022/05/06 12:54:22;;;;;;;10.60;10.30;;;21.50;99.90;;;;;;5101487;28;20259;-79
2022/05/06 12:56:50;;;;;;;10.75;10.45;;;21.50;99.90;;;;;;5102753;28;20230;-81
2022/05/06 12:59:19;;;;;;;10.60;10.30;;;21.50;99.90;;;;;;5101473;28;20252;-81
2022/05/06 13:01:49;;;;;;;10.70;10.40;;;21.50;99.90;;;;;;5101290;28;20252;-81
2022/05/06 13:04:18;;;;;;;10.90;10.60;;;21.30;99.90;;;;;;5100976;28;20265;-81
2022/05/06 13:06:48;;;;;;;10.80;10.50;;;21.10;99.90;;;;;;5114827;22;20237;-81
2022/05/06 13:09:17;;;;;;;10.70;10.40;;;21.30;99.90;;;;;;5119447;28;20282;-79
2022/05/06 13:11:47;;;;;;;10.60;10.30;;;21.40;99.90;;;;;;5111558;28;20228;-81
2022/05/06 13:14:16;;;;;;;10.30;10.00;;;21.50;99.90;;;;;;5104727;28;21079;-81
2022/05/06 13:16:46;;;;;;;10.20;9.90;;;21.30;99.90;;;;;;5104114;28;20245;-81
2022/05/06 13:19:15;;;;;;;10.30;10.00;;;21.20;99.90;;;;;;5103187;28;20237;-81
2022/05/06 13:21:45;;;;;;;10.27;9.98;;;21.30;99.90;;;;;;5106873;28;20233;-83
2022/05/06 13:24:18;;;;;;;10.45;10.15;;;21.50;99.90;;;;;;5107882;28;20236;-83
2022/05/06 13:26:46;;;;;;;10.50;10.20;;;21.50;99.90;;;;;;5106065;28;20252;-84
2022/05/06 13:29:14;;;;;;;10.05;9.75;;;21.60;99.90;;;;;;5106225;28;20226;-83
2022/05/06 13:31:42;;;;;;;10.02;9.73;;;21.60;99.90;;;;;;5106798;28;20237;-83
2022/05/06 13:34:12;;;;;;;10.30;10.00;;;21.50;99.90;;;;;;5103299;28;20351;-84
2022/05/06 13:36:44;;;;;;;10.40;10.10;;;21.50;99.90;;;;;;5101981;28;20229;-84
2022/05/06 13:39:15;;;;;;;10.50;10.20;;;21.40;99.90;;;;;;5101378;28;20310;-84
2022/05/06 13:41:43;;;;;;;10.63;10.32;;;21.40;99.90;;;;;;5098259;28;20240;-84
2022/05/06 13:47:00;;;;;;;10.35;10.05;;;21.60;99.90;;;;;;5189122;22;20325;-83
2022/05/06 13:49:28;;;;;;;10.70;10.40;;;21.60;99.90;;;;;;5142723;27;20236;-84
2022/05/06 13:51:57;;;;;;;10.70;10.40;;;21.70;99.90;;;;;;5122790;27;20221;-85
2022/05/06 13:54:35;;;;;;;10.38;10.07;;;21.70;99.90;;;;;;5122164;28;20237;-83
2022/05/06 13:59:52;;;;;;;10.43;10.13;;;21.60;99.90;;;;;;5114925;28;20213;-84
2022/05/06 14:02:22;;;;;;;10.77;10.48;;;21.70;99.90;;;;;;5124358;28;20217;-82
2022/05/06 14:04:51;;;;;;;10.50;10.20;;;21.90;99.90;;;;;;5134492;27;20262;-82
2022/05/06 14:07:23;;;;;;;10.50;10.20;;;21.80;99.90;;;;;;5129005;28;20271;-82
2022/05/06 14:09:53;;;;;;;10.75;10.45;;;21.70;99.90;;;;;;5128975;28;20225;-81
2022/05/06 14:13:08;;;;;;;;;;;;;;;;;;;;;
2022/05/06 14:18:42;;;;;;;10.50;10.20;;;21.60;99.90;;;;;;5095186;28;20213;-84
2022/05/06 14:21:42;;;;;;;11.00;10.70;;;21.60;99.90;;;;;;5131831;28;20225;-83
2022/05/06 14:25:17;;;;;;;10.57;10.27;;;21.70;99.90;;;;;;5133567;28;20221;-83
2022/05/06 14:27:47;;;;;;;10.35;10.05;;;21.70;99.90;;;;;;5133021;28;20232;-78
2022/05/06 14:30:15;;;;;;;10.48;10.18;;;21.70;99.90;;;;;;5139190;28;20234;-80
2022/05/06 14:32:43;;;;;;;10.23;9.93;;;21.80;99.90;;;;;;5139597;27;20228;-80
2022/05/06 14:35:20;;;;;;;10.35;10.05;;;21.90;99.90;;;;;;5137956;28;20221;-80
2022/05/06 14:37:50;;;;;;;10.00;9.70;;;21.90;99.90;;;;;;5131139;28;20219;-79
2022/05/06 14:40:18;;;;;;;9.57;9.27;;;21.70;99.90;;;;;;5126495;28;20235;-79
2022/05/06 14:42:51;;;;;;;9.48;9.18;;;21.60;99.90;;;;;;5124097;28;20255;-79
2022/05/06 14:45:19;;;;;;;9.70;9.40;;;21.60;99.90;;;;;;5123646;28;20213;-79
2022/05/06 14:47:47;;;;;;;9.77;9.48;;;21.30;99.90;;;;;;5123162;28;20958;-78
2022/05/06 14:50:15;;;;;;;10.00;9.70;;;21.20;99.90;;;;;;5123460;28;20319;-79
2022/05/06 14:52:45;;;;;;;10.20;9.90;;;21.20;99.90;;;;;;5102195;28;20228;-79
2022/05/06 14:55:13;;;;;;;9.50;9.20;;;21.20;99.90;;;;;;5102018;28;20210;-79
2022/05/06 14:57:46;;;;;;;9.75;9.45;;;21.30;99.90;;;;;;5102999;28;20641;-80
2022/05/06 15:03:00;;;;;;;9.65;9.35;;;21.10;99.90;;;;;;5122368;28;20216;-80
2022/05/06 15:05:30;;;;;;;9.40;9.10;;;21.20;99.90;;;;;;5121790;28;20237;-81
2022/05/06 15:07:59;;;;;;;9.48;9.18;;;21.10;99.90;;;;;;5127192;28;20236;-82
2022/05/06 15:10:29;;;;;;;9.60;9.30;;;21.10;99.90;;;;;;5125276;28;20233;-81
2022/05/06 15:12:58;;;;;;;9.57;9.27;;;21.20;99.90;;;;;;5123729;28;20293;-80
2022/05/06 15:15:39;;;;;;;9.75;9.45;;;21.10;99.90;;;;;;5123506;28;20216;-81
2022/05/06 15:20:53;;;;;;;9.63;9.32;;;20.90;99.90;;;;;;5123021;28;20228;-80
2022/05/06 15:23:23;;;;;;;9.88;9.57;;;20.80;99.90;;;;;;5123790;28;20221;-81
2022/05/06 15:25:53;;;;;;;9.95;9.65;;;20.90;99.90;;;;;;5124630;28;20221;-85
2022/05/06 15:28:21;;;;;;;9.80;9.50;;;20.70;99.90;;;;;;5132265;28;20233;-83
2022/05/06 15:31:20;;;;;;;9.60;9.30;;;20.70;99.90;;;;;;5132985;28;20249;-84
2022/05/06 15:33:51;;;;;;;9.40;9.10;;;20.80;99.90;;;;;;5120483;28;20238;-84
2022/05/06 15:36:19;;;;;;;9.85;9.55;;;20.80;99.90;;;;;;5120386;28;20252;-85